Grass Valley, Oregon
Current Conditions -  °F | °C
As of 4:53 AM on Monday 22 Dec 2014 (Local Time) from KDLS Reporting Station
Scattered Clouds Scattered Clouds  
Wind Chill: 10°   Ceiling: Unl
Heat Index: 10°   Visibility: 10mi
Dew Point:   Wind: 12mph
Humidity: 77%   Direction: 300°WNW
Pressure: 30.2"   Gusts: NA
Location:  45.36°N, 120.79°W
Report Text: KDLS 221253Z AUTO 30010KT 10SM SCT085 10/06 A3020 RMK AO2 SLP229 T01000061
Loading
Personal Weather Stations






























Interactive Weather Map New forecast layout! Learn more

10-Day Weather Forecast

Advertisements
Track Severe Weather on mobile